Time;durP1;ratioP1;P1;durP2;ratioP2;P2;SDS_P1;SDS_P2;PMS_P1;PMS_P2;Temp;Humidity;BMP_temperature;BMP_pressure;BME280_temperature;BME280_humidity;BME280_pressure;Samples;Min_cycle;Max_cycle;Signal;HPM_P1;HPM_P2
2022/03/15 00:00:37;;;;;;;12.88;4.28;;;;;;;;;;4961658;28;20019;-59
2022/03/15 00:03:05;;;;;;;12.68;4.15;;;;;;;;;;4967199;28;22408;-59
2022/03/15 00:05:34;;;;;;;8.80;4.03;;;;;;;;;;4960667;28;20035;-58
2022/03/15 00:07:59;;;;;;;14.07;4.72;;;;;;;;;;4979565;28;20035;-61
2022/03/15 00:10:28;;;;;;;16.83;4.13;;;;;;;;;;4961484;28;20069;-59
2022/03/15 00:12:56;;;;;;;14.77;4.75;;;;;;;;;;4966733;28;20146;-59
2022/03/15 00:15:25;;;;;;;19.10;4.95;;;;;;;;;;4964603;28;20070;-59
2022/03/15 00:17:59;;;;;;;17.33;4.70;;;;;;;;;;4966179;28;20037;-59
2022/03/15 00:20:29;;;;;;;12.70;4.75;;;;;;;;;;4964411;28;20038;-59
2022/03/15 00:23:00;;;;;;;12.18;3.78;;;;;;;;;;4964621;28;20042;-60
2022/03/15 00:25:26;;;;;;;16.30;4.70;;;;;;;;;;4965647;28;20780;-60
2022/03/15 00:27:52;;;;;;;16.73;4.47;;;;;;;;;;4960726;28;20644;-60
2022/03/15 00:30:19;;;;;;;13.35;4.88;;;;;;;;;;4964239;28;20047;-60
2022/03/15 00:32:48;;;;;;;11.80;4.55;;;;;;;;;;4964338;28;20121;-60
2022/03/15 00:35:17;;;;;;;18.73;3.85;;;;;;;;;;4982184;28;20157;-58
2022/03/15 00:37:48;;;;;;;11.00;4.43;;;;;;;;;;4965274;28;20041;-59
2022/03/15 00:40:14;;;;;;;12.40;3.80;;;;;;;;;;4966154;28;20053;-61
2022/03/15 00:42:48;;;;;;;17.35;5.68;;;;;;;;;;4963261;28;20041;-60
2022/03/15 00:45:14;;;;;;;17.67;5.35;;;;;;;;;;4962990;28;20592;-59
2022/03/15 00:47:47;;;;;;;9.35;4.88;;;;;;;;;;4979472;28;20604;-59
2022/03/15 00:50:21;;;;;;;15.23;4.47;;;;;;;;;;4966812;28;20097;-59
2022/03/15 00:52:46;;;;;;;13.07;5.45;;;;;;;;;;4960371;28;22093;-59
2022/03/15 00:55:11;;;;;;;28.13;5.43;;;;;;;;;;4958905;28;20027;-61
2022/03/15 00:57:40;;;;;;;21.33;6.03;;;;;;;;;;4965002;28;20046;-60
2022/03/15 01:00:07;;;;;;;15.65;5.68;;;;;;;;;;4965633;28;20112;-59
2022/03/15 01:02:32;;;;;;;10.25;4.72;;;;;;;;;;4964047;28;20057;-59
2022/03/15 01:05:00;;;;;;;13.55;5.38;;;;;;;;;;4958665;28;21948;-60
2022/03/15 01:07:29;;;;;;;13.95;5.50;;;;;;;;;;4967160;28;20108;-60
2022/03/15 01:09:54;;;;;;;18.10;4.93;;;;;;;;;;4965747;28;20057;-60
2022/03/15 01:12:20;;;;;;;11.23;4.85;;;;;;;;;;4963380;28;20026;-60
2022/03/15 01:14:48;;;;;;;13.50;4.60;;;;;;;;;;4972851;28;20498;-59
2022/03/15 01:17:18;;;;;;;13.88;5.45;;;;;;;;;;4960056;28;20042;-60
2022/03/15 01:19:50;;;;;;;15.85;4.90;;;;;;;;;;4966378;28;20038;-60
2022/03/15 01:22:18;;;;;;;20.25;5.40;;;;;;;;;;4965314;28;20754;-60
2022/03/15 01:24:44;;;;;;;12.75;5.32;;;;;;;;;;4958878;28;20045;-60
2022/03/15 01:27:10;;;;;;;15.70;4.63;;;;;;;;;;4962861;28;20030;-60
2022/03/15 01:29:36;;;;;;;13.02;5.80;;;;;;;;;;4959417;28;20038;-60
2022/03/15 01:32:02;;;;;;;12.68;5.28;;;;;;;;;;4956370;28;20045;-59
2022/03/15 01:34:32;;;;;;;18.73;5.78;;;;;;;;;;4975176;28;20038;-61
2022/03/15 01:37:00;;;;;;;12.50;5.22;;;;;;;;;;4958386;28;20033;-61
2022/03/15 01:39:26;;;;;;;14.00;4.38;;;;;;;;;;4971785;28;20080;-60
2022/03/15 01:41:52;;;;;;;9.00;5.13;;;;;;;;;;4965761;28;20891;-60
2022/03/15 01:44:18;;;;;;;11.57;4.38;;;;;;;;;;4957759;28;20038;-60
2022/03/15 01:46:45;;;;;;;14.52;5.20;;;;;;;;;;4963531;28;20113;-60
2022/03/15 01:49:12;;;;;;;19.38;5.57;;;;;;;;;;4962915;28;20043;-59
2022/03/15 01:51:45;;;;;;;8.00;4.75;;;;;;;;;;4966266;28;20034;-60
2022/03/15 01:54:13;;;;;;;18.38;5.95;;;;;;;;;;4963757;28;20430;-60
2022/03/15 01:56:42;;;;;;;13.63;5.40;;;;;;;;;;4964221;28;20037;-60
2022/03/15 01:59:11;;;;;;;10.27;5.55;;;;;;;;;;4960356;28;20572;-59
2022/03/15 02:01:39;;;;;;;15.38;6.00;;;;;;;;;;4965469;28;20030;-59
2022/03/15 02:04:05;;;;;;;14.77;6.00;;;;;;;;;;4962265;28;20046;-60
2022/03/15 02:06:34;;;;;;;12.10;5.53;;;;;;;;;;4965620;28;20092;-60
2022/03/15 02:09:08;;;;;;;15.60;6.90;;;;;;;;;;4981935;28;20034;-59
2022/03/15 02:11:40;;;;;;;17.70;5.95;;;;;;;;;;4978397;28;20034;-59
2022/03/15 02:14:06;;;;;;;19.77;6.50;;;;;;;;;;4961261;28;20041;-60
2022/03/15 02:16:34;;;;;;;16.52;7.05;;;;;;;;;;4964183;28;20038;-59
2022/03/15 02:19:05;;;;;;;14.90;6.13;;;;;;;;;;4979582;28;20134;-60
2022/03/15 02:21:36;;;;;;;13.68;7.65;;;;;;;;;;4965054;28;20031;-60
2022/03/15 02:24:02;;;;;;;18.35;7.40;;;;;;;;;;4963291;28;20840;-59
2022/03/15 02:26:27;;;;;;;26.08;7.97;;;;;;;;;;4958182;28;20042;-59
2022/03/15 02:28:57;;;;;;;25.35;7.05;;;;;;;;;;4945913;28;20034;-59
2022/03/15 02:31:27;;;;;;;20.65;6.60;;;;;;;;;;4963695;28;20038;-59
2022/03/15 02:33:55;;;;;;;22.33;8.15;;;;;;;;;;4961069;28;20050;-59
2022/03/15 02:36:23;;;;;;;17.92;7.15;;;;;;;;;;4963994;28;20041;-61
2022/03/15 02:38:52;;;;;;;14.38;7.28;;;;;;;;;;4964118;28;20062;-58
2022/03/15 02:41:20;;;;;;;14.15;7.72;;;;;;;;;;4962373;28;20038;-60
2022/03/15 02:43:49;;;;;;;11.90;7.22;;;;;;;;;;4960920;28;20023;-59
2022/03/15 02:46:17;;;;;;;19.77;7.63;;;;;;;;;;4959003;28;20037;-60
2022/03/15 02:48:44;;;;;;;21.65;7.32;;;;;;;;;;4959496;28;20546;-60
2022/03/15 02:51:10;;;;;;;16.92;8.18;;;;;;;;;;4960405;28;20036;-59
2022/03/15 02:53:37;;;;;;;16.45;7.43;;;;;;;;;;4979961;28;20030;-59
2022/03/15 02:56:10;;;;;;;22.50;8.05;;;;;;;;;;4950162;28;20022;-60
2022/03/15 02:58:37;;;;;;;17.00;8.23;;;;;;;;;;4963656;28;20038;-59
2022/03/15 03:01:06;;;;;;;16.23;8.40;;;;;;;;;;4964122;28;20146;-61
2022/03/15 03:03:36;;;;;;;24.33;8.80;;;;;;;;;;4966821;28;20046;-59
2022/03/15 03:06:02;;;;;;;19.58;7.75;;;;;;;;;;4974457;28;20027;-59
2022/03/15 03:08:30;;;;;;;25.85;9.25;;;;;;;;;;4965572;28;21230;-59
2022/03/15 03:10:59;;;;;;;16.98;8.45;;;;;;;;;;4975998;28;20110;-59
2022/03/15 03:13:27;;;;;;;21.80;8.73;;;;;;;;;;4962083;28;20031;-58
2022/03/15 03:15:57;;;;;;;21.08;9.15;;;;;;;;;;4960114;28;20029;-59
2022/03/15 03:18:32;;;;;;;17.85;9.20;;;;;;;;;;4962243;28;20553;-59
2022/03/15 03:20:58;;;;;;;21.17;9.23;;;;;;;;;;4976710;28;22069;-58
2022/03/15 03:23:25;;;;;;;28.77;9.43;;;;;;;;;;4965236;28;20141;-59
2022/03/15 03:25:56;;;;;;;23.73;9.93;;;;;;;;;;4963423;28;20374;-59
2022/03/15 03:28:22;;;;;;;25.10;10.73;;;;;;;;;;4959420;28;20090;-59
2022/03/15 03:30:52;;;;;;;26.70;9.65;;;;;;;;;;4960359;28;20031;-60
2022/03/15 03:33:22;;;;;;;27.27;10.07;;;;;;;;;;4974517;28;20076;-58
2022/03/15 03:35:49;;;;;;;20.17;10.40;;;;;;;;;;4968033;28;20676;-59
2022/03/15 03:38:15;;;;;;;19.52;9.82;;;;;;;;;;4945821;28;20044;-59
2022/03/15 03:40:48;;;;;;;31.15;10.13;;;;;;;;;;4965686;28;20034;-59
2022/03/15 03:43:13;;;;;;;24.52;10.25;;;;;;;;;;4966842;28;20038;-60
2022/03/15 03:45:39;;;;;;;28.38;10.73;;;;;;;;;;4962672;28;20049;-60
2022/03/15 03:48:12;;;;;;;23.35;10.52;;;;;;;;;;4986658;28;20042;-59
2022/03/15 03:50:43;;;;;;;24.77;11.30;;;;;;;;;;4949882;28;20121;-59
2022/03/15 03:53:11;;;;;;;23.40;11.55;;;;;;;;;;4985351;28;20040;-59
2022/03/15 03:55:39;;;;;;;23.02;9.90;;;;;;;;;;4964828;28;20066;-59
2022/03/15 03:58:07;;;;;;;24.55;9.55;;;;;;;;;;4968761;28;20049;-59
2022/03/15 04:00:32;;;;;;;34.03;12.15;;;;;;;;;;4974335;28;20022;-59
2022/03/15 04:03:00;;;;;;;32.88;10.57;;;;;;;;;;4961247;28;20050;-60
2022/03/15 04:05:30;;;;;;;30.65;10.77;;;;;;;;;;4978231;28;20738;-60
2022/03/15 04:08:01;;;;;;;26.70;11.73;;;;;;;;;;4966044;28;21942;-59
2022/03/15 04:10:50;;;;;;;31.10;11.65;;;;;;;;;;4998494;28;20088;-60
2022/03/15 04:13:18;;;;;;;24.08;10.27;;;;;;;;;;4975514;28;20053;-59
2022/03/15 04:15:47;;;;;;;28.83;11.38;;;;;;;;;;4998103;28;20143;-61
2022/03/15 04:18:13;;;;;;;28.70;10.85;;;;;;;;;;4986208;28;20048;-59
2022/03/15 04:20:43;;;;;;;20.40;10.45;;;;;;;;;;4998102;28;20038;-61
2022/03/15 04:23:14;;;;;;;37.08;10.93;;;;;;;;;;4998714;28;21290;-59
2022/03/15 04:25:40;;;;;;;23.50;10.02;;;;;;;;;;4981098;28;20489;-60
2022/03/15 04:28:08;;;;;;;33.22;10.30;;;;;;;;;;4982715;28;20041;-59
2022/03/15 04:30:34;;;;;;;21.95;11.10;;;;;;;;;;4999009;28;20052;-60
2022/03/15 04:33:04;;;;;;;30.30;10.95;;;;;;;;;;4983491;28;20048;-60
2022/03/15 04:35:34;;;;;;;33.38;9.55;;;;;;;;;;4998996;28;20045;-60
2022/03/15 04:38:02;;;;;;;30.05;10.50;;;;;;;;;;4998697;28;20044;-59
2022/03/15 04:44:03;;;;;;;21.23;9.32;;;;;;;;;;4952341;28;20020;-58
2022/03/15 04:46:29;;;;;;;22.48;9.80;;;;;;;;;;4977126;28;20139;-59
2022/03/15 04:48:58;;;;;;;29.45;10.52;;;;;;;;;;4964021;28;20998;-59
2022/03/15 04:51:27;;;;;;;27.80;10.35;;;;;;;;;;4963133;28;20109;-59
2022/03/15 04:53:53;;;;;;;28.52;9.93;;;;;;;;;;4965573;28;20449;-58
2022/03/15 04:56:21;;;;;;;36.17;11.70;;;;;;;;;;4963166;28;20145;-59
2022/03/15 04:58:49;;;;;;;31.67;11.35;;;;;;;;;;4975306;28;20096;-60
2022/03/15 05:01:17;;;;;;;32.88;10.38;;;;;;;;;;4976175;28;20444;-58
2022/03/15 05:03:45;;;;;;;19.95;9.82;;;;;;;;;;4974617;28;20042;-60
2022/03/15 05:06:11;;;;;;;25.30;10.07;;;;;;;;;;4975788;28;20109;-58
2022/03/15 05:08:36;;;;;;;22.88;9.75;;;;;;;;;;4967406;28;21930;-59
2022/03/15 05:11:08;;;;;;;35.13;11.00;;;;;;;;;;4977206;28;20033;-60
2022/03/15 05:13:40;;;;;;;30.13;12.20;;;;;;;;;;4967813;28;20034;-59
2022/03/15 05:16:11;;;;;;;31.27;10.48;;;;;;;;;;4966157;28;20057;-60
2022/03/15 05:18:37;;;;;;;29.85;11.02;;;;;;;;;;4965700;28;20065;-59
2022/03/15 05:21:07;;;;;;;38.60;11.52;;;;;;;;;;4978410;28;20132;-59
2022/03/15 05:23:36;;;;;;;32.92;11.38;;;;;;;;;;4964706;28;20034;-61
2022/03/15 05:26:01;;;;;;;26.08;11.20;;;;;;;;;;4976606;28;20078;-60
2022/03/15 05:28:27;;;;;;;29.15;12.35;;;;;;;;;;4957252;28;20507;-61
2022/03/15 05:30:56;;;;;;;29.95;10.90;;;;;;;;;;4955285;28;20137;-60
2022/03/15 05:33:28;;;;;;;40.30;13.52;;;;;;;;;;4975416;28;20042;-60
2022/03/15 05:35:56;;;;;;;38.08;13.15;;;;;;;;;;4974532;28;20030;-59
2022/03/15 05:38:24;;;;;;;34.88;12.48;;;;;;;;;;4961761;28;20113;-60
2022/03/15 05:40:55;;;;;;;34.92;13.30;;;;;;;;;;4975818;28;20571;-59
2022/03/15 05:43:22;;;;;;;36.35;13.32;;;;;;;;;;4966028;28;20041;-59
2022/03/15 05:45:55;;;;;;;38.38;14.77;;;;;;;;;;4967769;28;20073;-59
2022/03/15 05:48:21;;;;;;;32.97;12.00;;;;;;;;;;4967038;28;20068;-59
2022/03/15 05:50:49;;;;;;;41.30;13.60;;;;;;;;;;4965915;28;20488;-60
2022/03/15 05:53:14;;;;;;;36.08;12.95;;;;;;;;;;4964334;28;20049;-60
2022/03/15 05:55:40;;;;;;;33.00;11.98;;;;;;;;;;4976970;28;20081;-59
2022/03/15 05:58:06;;;;;;;40.25;13.20;;;;;;;;;;4961468;28;21318;-60
2022/03/15 06:00:32;;;;;;;36.40;13.43;;;;;;;;;;4958447;28;20029;-60
2022/03/15 06:03:01;;;;;;;24.63;12.18;;;;;;;;;;4967512;28;20220;-60
2022/03/15 06:05:30;;;;;;;33.13;12.88;;;;;;;;;;4968255;28;20026;-60
2022/03/15 06:07:56;;;;;;;37.72;14.10;;;;;;;;;;4969378;28;20180;-59
2022/03/15 06:10:24;;;;;;;36.10;13.55;;;;;;;;;;4965481;28;20478;-59
2022/03/15 06:12:50;;;;;;;34.58;13.13;;;;;;;;;;4968276;28;20080;-59
2022/03/15 06:15:16;;;;;;;39.95;15.73;;;;;;;;;;4962343;28;20030;-61
2022/03/15 06:17:44;;;;;;;33.13;13.00;;;;;;;;;;4950543;28;20470;-59
2022/03/15 06:20:14;;;;;;;29.10;13.45;;;;;;;;;;4967902;28;20140;-60
2022/03/15 06:22:39;;;;;;;24.85;12.60;;;;;;;;;;4963884;28;20045;-59
2022/03/15 06:25:05;;;;;;;32.22;13.70;;;;;;;;;;4965523;28;20362;-59
2022/03/15 06:27:34;;;;;;;33.95;11.88;;;;;;;;;;4975224;28;21368;-61
2022/03/15 06:29:59;;;;;;;29.35;12.60;;;;;;;;;;4965581;28;20049;-59
2022/03/15 06:32:24;;;;;;;27.42;12.13;;;;;;;;;;4960128;28;20046;-60
2022/03/15 06:34:50;;;;;;;29.42;11.82;;;;;;;;;;4968100;28;20468;-59
2022/03/15 06:37:16;;;;;;;35.95;12.50;;;;;;;;;;4966630;28;20102;-58
2022/03/15 06:39:44;;;;;;;35.80;13.60;;;;;;;;;;4966141;28;20149;-60
2022/03/15 06:42:11;;;;;;;33.40;11.57;;;;;;;;;;4951919;28;20036;-59
2022/03/15 06:44:43;;;;;;;23.42;11.18;;;;;;;;;;4962286;28;21628;-59
2022/03/15 06:47:13;;;;;;;33.42;12.75;;;;;;;;;;4951281;28;20561;-59
2022/03/15 06:49:39;;;;;;;25.98;11.23;;;;;;;;;;4964785;28;20033;-59
2022/03/15 06:52:04;;;;;;;28.45;13.15;;;;;;;;;;4958378;28;20129;-59
2022/03/15 06:54:30;;;;;;;35.58;11.95;;;;;;;;;;4964173;28;20108;-60
2022/03/15 06:56:58;;;;;;;31.17;12.02;;;;;;;;;;4976923;28;20172;-59
2022/03/15 06:59:27;;;;;;;29.88;13.15;;;;;;;;;;4980732;28;20465;-60
2022/03/15 07:01:53;;;;;;;33.67;12.60;;;;;;;;;;4968780;28;20685;-59
2022/03/15 07:04:19;;;;;;;34.33;12.70;;;;;;;;;;4965196;28;20035;-61
2022/03/15 07:06:46;;;;;;;27.08;12.10;;;;;;;;;;4960610;28;20931;-59
2022/03/15 07:09:14;;;;;;;34.22;12.60;;;;;;;;;;4959810;28;20038;-58
2022/03/15 07:11:39;;;;;;;33.25;13.25;;;;;;;;;;4952370;28;20035;-58
2022/03/15 07:14:07;;;;;;;28.75;13.48;;;;;;;;;;4963859;28;20034;-59
2022/03/15 07:16:34;;;;;;;30.27;11.98;;;;;;;;;;4967726;28;20046;-59
2022/03/15 07:18:59;;;;;;;35.55;13.68;;;;;;;;;;4979214;28;20125;-59
2022/03/15 07:21:25;;;;;;;28.02;12.80;;;;;;;;;;4976028;28;20390;-60
2022/03/15 07:23:53;;;;;;;34.60;12.85;;;;;;;;;;4966024;28;20030;-60
2022/03/15 07:26:21;;;;;;;31.45;13.48;;;;;;;;;;4967600;28;20042;-59
2022/03/15 07:28:47;;;;;;;31.52;12.15;;;;;;;;;;4976122;28;20514;-59
2022/03/15 07:31:14;;;;;;;30.73;14.05;;;;;;;;;;4966233;28;20042;-59
2022/03/15 07:33:42;;;;;;;29.98;13.20;;;;;;;;;;4968113;28;20041;-59
2022/03/15 07:36:08;;;;;;;30.90;12.85;;;;;;;;;;4960907;28;20057;-60
2022/03/15 07:38:34;;;;;;;32.50;13.77;;;;;;;;;;4965544;28;20069;-60
2022/03/15 07:41:02;;;;;;;39.47;15.60;;;;;;;;;;4967581;28;20030;-59
2022/03/15 07:43:28;;;;;;;28.75;13.85;;;;;;;;;;4981038;28;20039;-60
2022/03/15 07:45:56;;;;;;;30.38;14.50;;;;;;;;;;4964023;28;20023;-60
2022/03/15 07:48:21;;;;;;;39.35;15.60;;;;;;;;;;4952027;28;20046;-59
2022/03/15 07:50:52;;;;;;;39.80;15.05;;;;;;;;;;4966403;28;20058;-60
2022/03/15 07:53:18;;;;;;;33.35;14.07;;;;;;;;;;4968440;28;20090;-59
2022/03/15 07:55:45;;;;;;;31.63;14.98;;;;;;;;;;4965154;28;20730;-59
2022/03/15 07:58:13;;;;;;;35.22;13.80;;;;;;;;;;4967431;28;20046;-60
2022/03/15 08:00:38;;;;;;;40.90;15.02;;;;;;;;;;4965438;28;20033;-62
2022/03/15 08:03:04;;;;;;;36.40;15.38;;;;;;;;;;4981012;28;20050;-59
2022/03/15 08:05:32;;;;;;;38.95;16.23;;;;;;;;;;4982721;28;20085;-60
2022/03/15 08:07:58;;;;;;;41.50;15.02;;;;;;;;;;4961903;28;20840;-60
2022/03/15 08:10:25;;;;;;;51.55;16.60;;;;;;;;;;4982010;28;20039;-61
2022/03/15 08:12:53;;;;;;;44.83;15.85;;;;;;;;;;4961047;28;20057;-60
2022/03/15 08:15:21;;;;;;;42.30;15.13;;;;;;;;;;4967522;28;20031;-60
2022/03/15 08:17:47;;;;;;;37.85;15.35;;;;;;;;;;4977532;28;20472;-60
2022/03/15 08:20:19;;;;;;;35.78;15.02;;;;;;;;;;4966521;28;20054;-59
2022/03/15 08:22:45;;;;;;;38.20;14.88;;;;;;;;;;4970836;28;20623;-59
2022/03/15 08:25:15;;;;;;;33.10;15.50;;;;;;;;;;4983317;28;20619;-60
2022/03/15 08:27:43;;;;;;;38.50;14.88;;;;;;;;;;4982469;28;20052;-59
2022/03/15 08:30:09;;;;;;;38.10;14.95;;;;;;;;;;4970796;28;20553;-59
2022/03/15 08:32:35;;;;;;;37.78;15.07;;;;;;;;;;4971757;28;20034;-60
2022/03/15 08:35:03;;;;;;;30.15;13.90;;;;;;;;;;4970382;28;20041;-59
2022/03/15 08:37:34;;;;;;;45.65;14.95;;;;;;;;;;4978886;28;20327;-59
2022/03/15 08:40:03;;;;;;;31.45;13.98;;;;;;;;;;4969656;28;20038;-61
2022/03/15 08:42:28;;;;;;;33.47;14.60;;;;;;;;;;4947962;28;20108;-59
2022/03/15 08:44:54;;;;;;;33.25;14.65;;;;;;;;;;4969407;28;20034;-59
2022/03/15 08:47:22;;;;;;;31.85;14.68;;;;;;;;;;4970788;28;20065;-60
2022/03/15 08:49:48;;;;;;;31.30;13.52;;;;;;;;;;4970303;28;20138;-60
2022/03/15 08:52:16;;;;;;;31.33;14.10;;;;;;;;;;4970055;28;20609;-61
2022/03/15 08:54:42;;;;;;;35.25;14.23;;;;;;;;;;4970844;28;20030;-60
2022/03/15 08:57:09;;;;;;;26.25;13.35;;;;;;;;;;4971617;28;20026;-60
2022/03/15 08:59:35;;;;;;;30.50;13.82;;;;;;;;;;4970170;28;20870;-59
2022/03/15 09:02:05;;;;;;;30.92;13.98;;;;;;;;;;4970708;28;20059;-59
2022/03/15 09:04:30;;;;;;;34.60;13.45;;;;;;;;;;4981637;28;21982;-59
2022/03/15 09:07:01;;;;;;;29.63;14.23;;;;;;;;;;4966034;28;20030;-60
2022/03/15 09:09:32;;;;;;;22.67;12.90;;;;;;;;;;4953252;28;20035;-59
2022/03/15 09:11:59;;;;;;;31.50;14.13;;;;;;;;;;4985181;28;20022;-60
2022/03/15 09:14:25;;;;;;;23.60;12.45;;;;;;;;;;4967716;28;20062;-60
2022/03/15 09:16:51;;;;;;;23.85;11.68;;;;;;;;;;4968642;28;20050;-60
2022/03/15 09:19:19;;;;;;;28.65;12.50;;;;;;;;;;4968993;28;20108;-59
2022/03/15 09:21:48;;;;;;;24.20;12.85;;;;;;;;;;4965585;28;21165;-60
2022/03/15 09:24:19;;;;;;;26.88;12.05;;;;;;;;;;4983396;28;21046;-61
2022/03/15 09:26:46;;;;;;;27.08;11.70;;;;;;;;;;4983150;28;20561;-59
2022/03/15 09:29:14;;;;;;;21.90;12.05;;;;;;;;;;4966869;28;20033;-60
2022/03/15 09:31:44;;;;;;;26.60;12.10;;;;;;;;;;4948917;28;20035;-60
2022/03/15 09:34:12;;;;;;;22.13;11.52;;;;;;;;;;4965617;28;20361;-59
2022/03/15 09:36:40;;;;;;;21.55;11.30;;;;;;;;;;4968925;28;20026;-59
2022/03/15 09:39:07;;;;;;;25.05;11.48;;;;;;;;;;4977930;28;20054;-59
2022/03/15 09:41:35;;;;;;;22.42;11.32;;;;;;;;;;4967522;28;20094;-60
2022/03/15 09:44:05;;;;;;;23.85;11.73;;;;;;;;;;4968411;28;20057;-59
2022/03/15 09:46:31;;;;;;;27.23;11.75;;;;;;;;;;4968862;28;20134;-60
2022/03/15 09:48:58;;;;;;;28.25;11.55;;;;;;;;;;4961476;28;20594;-60
2022/03/15 09:51:26;;;;;;;23.17;11.70;;;;;;;;;;4969586;28;20046;-59
2022/03/15 09:53:55;;;;;;;17.38;10.45;;;;;;;;;;4967875;28;20599;-60
2022/03/15 09:56:21;;;;;;;21.17;11.70;;;;;;;;;;4978638;28;20134;-59
2022/03/15 09:58:48;;;;;;;18.50;10.05;;;;;;;;;;4968654;28;20038;-59
2022/03/15 10:01:17;;;;;;;24.25;10.32;;;;;;;;;;4982554;28;20038;-59
2022/03/15 10:03:43;;;;;;;19.58;9.82;;;;;;;;;;4967533;28;20073;-59
2022/03/15 10:06:09;;;;;;;25.33;10.48;;;;;;;;;;4969041;28;20438;-61
2022/03/15 10:08:35;;;;;;;17.95;9.43;;;;;;;;;;4968399;28;20169;-59
2022/03/15 10:11:02;;;;;;;20.05;9.43;;;;;;;;;;4969004;28;20593;-59
2022/03/15 10:13:27;;;;;;;19.92;10.07;;;;;;;;;;4967856;28;20100;-59
2022/03/15 10:15:58;;;;;;;26.33;9.98;;;;;;;;;;4967889;28;20070;-61
2022/03/15 10:18:26;;;;;;;20.77;10.15;;;;;;;;;;4967638;28;20041;-59
2022/03/15 10:20:51;;;;;;;25.48;10.73;;;;;;;;;;4961287;28;20546;-59
2022/03/15 10:23:19;;;;;;;18.20;9.63;;;;;;;;;;4968504;28;20678;-59
2022/03/15 10:25:48;;;;;;;19.38;10.20;;;;;;;;;;4966317;28;20049;-59
2022/03/15 10:28:18;;;;;;;19.88;9.95;;;;;;;;;;4967341;28;20146;-60
2022/03/15 10:30:46;;;;;;;21.52;10.35;;;;;;;;;;4967342;28;20029;-60
2022/03/15 10:33:12;;;;;;;23.52;10.50;;;;;;;;;;4961460;28;20051;-60
2022/03/15 10:35:42;;;;;;;20.88;9.52;;;;;;;;;;4969870;28;20030;-60
2022/03/15 10:38:08;;;;;;;18.40;9.75;;;;;;;;;;4979794;28;20041;-61
2022/03/15 10:40:40;;;;;;;22.70;9.75;;;;;;;;;;4963509;28;20022;-59
2022/03/15 10:43:21;;;;;;;20.17;10.07;;;;;;;;;;4967868;28;20796;-59
2022/03/15 10:45:48;;;;;;;26.02;10.68;;;;;;;;;;4965238;28;21054;-60
2022/03/15 10:48:19;;;;;;;28.52;10.95;;;;;;;;;;4967701;28;20058;-60
2022/03/15 10:51:10;;;;;;;18.00;9.73;;;;;;;;;;4967423;28;20525;-60
2022/03/15 10:53:40;;;;;;;25.20;10.18;;;;;;;;;;4966473;28;20434;-61
2022/03/15 10:56:09;;;;;;;20.35;9.70;;;;;;;;;;4966073;28;20026;-60
2022/03/15 10:58:47;;;;;;;18.60;9.75;;;;;;;;;;4964855;28;20051;-61
2022/03/15 11:01:21;;;;;;;23.15;10.20;;;;;;;;;;4967278;28;20112;-59
2022/03/15 11:04:00;;;;;;;18.77;10.45;;;;;;;;;;4967214;28;20820;-61
2022/03/15 11:06:38;;;;;;;20.25;8.93;;;;;;;;;;4960497;28;20093;-59
2022/03/15 11:09:18;;;;;;;21.30;8.95;;;;;;;;;;4980398;28;20040;-60
2022/03/15 11:11:46;;;;;;;19.10;8.85;;;;;;;;;;4966077;28;20053;-59
2022/03/15 11:14:12;;;;;;;21.40;9.13;;;;;;;;;;4963157;28;20026;-59
2022/03/15 11:16:40;;;;;;;18.42;9.73;;;;;;;;;;4961022;28;20660;-60
2022/03/15 11:19:05;;;;;;;22.85;9.93;;;;;;;;;;4947677;28;20156;-59
2022/03/15 11:21:38;;;;;;;18.38;9.00;;;;;;;;;;4965976;28;20443;-60
2022/03/15 11:24:10;;;;;;;21.70;9.38;;;;;;;;;;4967098;28;20034;-60
2022/03/15 11:26:37;;;;;;;20.45;10.40;;;;;;;;;;4966303;28;20163;-61
2022/03/15 11:29:05;;;;;;;19.77;10.45;;;;;;;;;;4960053;28;20137;-61
2022/03/15 11:31:38;;;;;;;25.98;10.38;;;;;;;;;;4968210;28;20057;-60
2022/03/15 11:34:07;;;;;;;18.25;9.55;;;;;;;;;;4965831;28;20484;-59
2022/03/15 11:36:32;;;;;;;21.88;10.35;;;;;;;;;;4964442;28;20180;-60
2022/03/15 11:39:00;;;;;;;22.45;10.52;;;;;;;;;;4975923;28;21078;-60
2022/03/15 11:41:28;;;;;;;22.70;11.02;;;;;;;;;;4977979;28;20070;-60
2022/03/15 11:44:11;;;;;;;20.77;10.65;;;;;;;;;;4966477;28;20121;-61
2022/03/15 11:46:43;;;;;;;24.52;10.05;;;;;;;;;;4965953;28;20046;-59
2022/03/15 11:49:18;;;;;;;17.40;8.70;;;;;;;;;;4960633;28;20058;-59
2022/03/15 11:51:56;;;;;;;19.25;8.07;;;;;;;;;;4960985;28;20026;-59
2022/03/15 11:54:33;;;;;;;20.08;8.02;;;;;;;;;;4968390;28;20034;-59
2022/03/15 11:57:22;;;;;;;13.25;6.78;;;;;;;;;;4962093;28;20097;-59
2022/03/15 11:59:50;;;;;;;16.52;7.18;;;;;;;;;;4949597;28;20038;-60
2022/03/15 12:02:28;;;;;;;17.73;8.75;;;;;;;;;;4971692;28;20034;-61
2022/03/15 12:04:57;;;;;;;20.90;7.90;;;;;;;;;;4972201;28;20598;-60
2022/03/15 12:07:43;;;;;;;15.02;7.20;;;;;;;;;;4981452;28;20034;-59
2022/03/15 12:10:08;;;;;;;23.95;8.68;;;;;;;;;;4985673;28;20026;-59
2022/03/15 12:12:34;;;;;;;17.63;7.53;;;;;;;;;;4970417;28;20053;-61
2022/03/15 12:15:11;;;;;;;18.02;7.20;;;;;;;;;;4980018;28;20093;-61
2022/03/15 12:17:39;;;;;;;18.88;7.40;;;;;;;;;;4970087;28;20042;-61
2022/03/15 12:20:18;;;;;;;20.88;9.07;;;;;;;;;;4953605;28;20045;-59
2022/03/15 12:22:44;;;;;;;20.42;9.05;;;;;;;;;;4985018;28;20532;-59
2022/03/15 12:25:13;;;;;;;17.08;10.10;;;;;;;;;;4954110;28;20061;-59
2022/03/15 12:27:43;;;;;;;17.48;9.15;;;;;;;;;;4968154;28;20121;-58
2022/03/15 12:30:16;;;;;;;21.63;9.30;;;;;;;;;;4981216;28;20112;-58
2022/03/15 12:32:49;;;;;;;22.92;8.45;;;;;;;;;;4981889;28;20058;-58
2022/03/15 12:35:15;;;;;;;17.98;7.65;;;;;;;;;;4977517;28;20152;-59
2022/03/15 12:37:41;;;;;;;21.80;7.40;;;;;;;;;;4969544;28;20113;-59
2022/03/15 12:40:12;;;;;;;17.05;7.00;;;;;;;;;;4976455;28;20573;-58
2022/03/15 12:42:41;;;;;;;14.18;6.95;;;;;;;;;;4978069;28;20560;-59
2022/03/15 12:45:12;;;;;;;12.07;7.25;;;;;;;;;;4969550;28;20102;-58
2022/03/15 12:47:59;;;;;;;13.02;7.60;;;;;;;;;;4953656;28;20080;-57
2022/03/15 12:50:37;;;;;;;17.17;7.03;;;;;;;;;;4990859;28;20165;-60
2022/03/15 12:53:17;;;;;;;16.00;7.47;;;;;;;;;;4959032;28;20508;-58
2022/03/15 12:55:59;;;;;;;13.90;6.35;;;;;;;;;;4945956;28;20038;-60
2022/03/15 13:02:30;;;;;;;12.00;5.15;;;;;;;;;;4965494;28;20042;-61
2022/03/15 13:05:10;;;;;;;12.88;6.00;;;;;;;;;;4954665;28;20054;-60
2022/03/15 13:07:43;;;;;;;9.80;5.70;;;;;;;;;;4930142;28;20050;-61
2022/03/15 13:10:13;;;;;;;14.20;5.32;;;;;;;;;;4931677;28;20557;-59
2022/03/15 13:12:45;;;;;;;11.38;4.50;;;;;;;;;;4953101;28;20057;-60
2022/03/15 13:15:19;;;;;;;8.63;4.35;;;;;;;;;;4946118;28;20039;-61
2022/03/15 13:17:54;;;;;;;7.90;3.50;;;;;;;;;;4950620;28;20046;-60
2022/03/15 13:20:26;;;;;;;8.30;3.28;;;;;;;;;;4957702;28;20093;-60
2022/03/15 13:23:01;;;;;;;9.10;3.50;;;;;;;;;;4961381;28;20031;-60
2022/03/15 13:25:54;;;;;;;7.00;2.85;;;;;;;;;;4944178;28;20160;-60
2022/03/15 13:28:20;;;;;;;4.40;2.25;;;;;;;;;;4944607;28;20059;-61
2022/03/15 13:30:46;;;;;;;5.60;2.53;;;;;;;;;;4955154;28;20520;-60
2022/03/15 13:33:15;;;;;;;5.32;2.22;;;;;;;;;;4944567;28;20783;-60
2022/03/15 13:35:43;;;;;;;5.70;2.47;;;;;;;;;;4939607;28;20053;-60
2022/03/15 13:38:17;;;;;;;3.08;1.88;;;;;;;;;;4957074;28;20592;-60
2022/03/15 13:40:44;;;;;;;5.47;2.00;;;;;;;;;;4948572;28;22011;-60
2022/03/15 13:43:18;;;;;;;8.48;2.40;;;;;;;;;;4946605;28;20113;-59
2022/03/15 13:45:49;;;;;;;4.15;2.40;;;;;;;;;;4944441;28;20128;-59
2022/03/15 13:48:26;;;;;;;5.00;2.10;;;;;;;;;;4931067;28;20038;-62
2022/03/15 13:50:58;;;;;;;11.85;2.58;;;;;;;;;;4944873;28;20517;-58
2022/03/15 13:53:29;;;;;;;11.20;3.08;;;;;;;;;;4949739;28;20066;-60
2022/03/15 13:56:06;;;;;;;7.30;2.42;;;;;;;;;;4949983;28;20026;-60
2022/03/15 13:58:31;;;;;;;;;;;;;;;;;;4948265;28;20050;-60
2022/03/15 14:01:09;;;;;;;6.33;2.77;;;;;;;;;;4946559;28;19922;-60
2022/03/15 14:03:37;;;;;;;13.43;2.70;;;;;;;;;;4963996;28;20310;-61
2022/03/15 14:06:09;;;;;;;5.07;2.45;;;;;;;;;;4983307;28;20038;-60
2022/03/15 14:08:47;;;;;;;6.78;2.70;;;;;;;;;;4967038;28;20145;-60
2022/03/15 14:11:13;;;;;;;3.70;2.05;;;;;;;;;;4969612;28;20042;-60
2022/03/15 14:13:57;;;;;;;9.00;2.80;;;;;;;;;;4968343;28;20038;-60
2022/03/15 14:16:32;;;;;;;10.40;3.00;;;;;;;;;;4966637;28;20046;-59
2022/03/15 14:19:02;;;;;;;9.13;2.90;;;;;;;;;;4968610;28;20068;-59
2022/03/15 14:21:33;;;;;;;9.65;3.13;;;;;;;;;;4967884;28;20030;-60
2022/03/15 14:23:59;;;;;;;4.07;2.67;;;;;;;;;;4969079;28;20027;-59
2022/03/15 14:26:29;;;;;;;6.65;2.50;;;;;;;;;;4978508;28;20352;-58
2022/03/15 14:28:58;;;;;;;11.88;3.60;;;;;;;;;;4968356;28;20030;-59
2022/03/15 14:31:30;;;;;;;8.93;2.90;;;;;;;;;;4968089;28;20033;-59
2022/03/15 14:34:00;;;;;;;10.27;4.00;;;;;;;;;;4967536;28;20467;-59
2022/03/15 14:36:33;;;;;;;12.63;3.85;;;;;;;;;;4970066;28;20038;-60
2022/03/15 14:39:12;;;;;;;7.30;2.97;;;;;;;;;;4964565;28;20042;-60
2022/03/15 14:41:42;;;;;;;7.15;2.95;;;;;;;;;;4968533;28;20038;-59
2022/03/15 14:44:10;;;;;;;10.50;4.45;;;;;;;;;;4962991;28;20034;-59